sensor_id;sensor_type;location;lat;lon;timestamp;temperature;humidity
76838;DHT22;65797;47.352;8.164;2024-03-02T02:01:40;3.70;2.40
76838;DHT22;65797;47.352;8.164;2024-03-02T02:04:06;3.70;73.20
76838;DHT22;65797;47.352;8.164;2024-03-02T02:06:32;3.80;99.90
76838;DHT22;65797;47.352;8.164;2024-03-02T02:08:58;3.80;99.90
76838;DHT22;65797;47.352;8.164;2024-03-02T02:11:24;3.80;99.90
76838;DHT22;65797;47.352;8.164;2024-03-02T02:13:50;3.80;99.90
76838;DHT22;65797;47.352;8.164;2024-03-02T02:16:16;3.70;12.20
76838;DHT22;65797;47.352;8.164;2024-03-02T02:29:03;3.70;99.90
76838;DHT22;65797;47.352;8.164;2024-03-02T02:47:01;3.70;99.90
76838;DHT22;65797;47.352;8.164;2024-03-02T03:04:57;3.60;99.90
76838;DHT22;65797;47.352;8.164;2024-03-02T03:12:34;3.60;99.90
76838;DHT22;65797;47.352;8.164;2024-03-02T03:17:35;3.60;99.90
76838;DHT22;65797;47.352;8.164;2024-03-02T03:20:03;3.50;99.90
76838;DHT22;65797;47.352;8.164;2024-03-02T03:22:30;3.50;99.90
76838;DHT22;65797;47.352;8.164;2024-03-02T03:24:56;3.40;99.90
76838;DHT22;65797;47.352;8.164;2024-03-02T03:27:22;3.40;99.90
76838;DHT22;65797;47.352;8.164;2024-03-02T03:29:48;3.40;99.90
76838;DHT22;65797;47.352;8.164;2024-03-02T03:32:14;3.40;99.90
76838;DHT22;65797;47.352;8.164;2024-03-02T03:34:39;3.30;99.90
76838;DHT22;65797;47.352;8.164;2024-03-02T03:37:05;3.30;99.90
76838;DHT22;65797;47.352;8.164;2024-03-02T03:42:07;3.30;1.00
76838;DHT22;65797;47.352;8.164;2024-03-02T03:44:33;3.20;99.90
76838;DHT22;65797;47.352;8.164;2024-03-02T03:46:59;3.20;99.90
76838;DHT22;65797;47.352;8.164;2024-03-02T03:49:26;3.20;99.90
76838;DHT22;65797;47.352;8.164;2024-03-02T03:54:27;3.20;99.90
76838;DHT22;65797;47.352;8.164;2024-03-02T04:41:48;3.20;1.00
76838;DHT22;65797;47.352;8.164;2024-03-02T04:44:13;3.20;1.00
76838;DHT22;65797;47.352;8.164;2024-03-02T04:49:14;3.10;1.00
76838;DHT22;65797;47.352;8.164;2024-03-02T04:51:41;3.10;1.00
76838;DHT22;65797;47.352;8.164;2024-03-02T06:13:53;2.50;1.00
76838;DHT22;65797;47.352;8.164;2024-03-02T06:16:19;2.50;1.00
76838;DHT22;65797;47.352;8.164;2024-03-02T06:18:59;2.60;1.00
76838;DHT22;65797;47.352;8.164;2024-03-02T06:22:04;2.50;99.90
76838;DHT22;65797;47.352;8.164;2024-03-02T06:42:59;2.10;1.00
76838;DHT22;65797;47.352;8.164;2024-03-02T06:45:24;2.20;99.90
76838;DHT22;65797;47.352;8.164;2024-03-02T18:35:37;7.50;1.00
76838;DHT22;65797;47.352;8.164;2024-03-02T18:38:03;7.40;1.00
76838;DHT22;65797;47.352;8.164;2024-03-02T19:16:44;6.80;99.90
76838;DHT22;65797;47.352;8.164;2024-03-02T20:30:11;6.00;1.00
76838;DHT22;65797;47.352;8.164;2024-03-02T20:32:37;5.90;1.00
76838;DHT22;65797;47.352;8.164;2024-03-02T20:35:04;5.90;1.00
76838;DHT22;65797;47.352;8.164;2024-03-02T20:37:30;5.80;99.90
76838;DHT22;65797;47.352;8.164;2024-03-02T20:39:56;5.90;99.90
76838;DHT22;65797;47.352;8.164;2024-03-02T20:42:24;6.00;1.00
76838;DHT22;65797;47.352;8.164;2024-03-02T20:44:51;6.00;99.90
76838;DHT22;65797;47.352;8.164;2024-03-02T20:47:17;6.00;1.00
76838;DHT22;65797;47.352;8.164;2024-03-02T20:49:43;6.00;10.00
76838;DHT22;65797;47.352;8.164;2024-03-02T20:52:09;6.00;1.00
76838;DHT22;65797;47.352;8.164;2024-03-02T20:54:35;6.00;1.00
76838;DHT22;65797;47.352;8.164;2024-03-02T20:57:02;6.00;1.00
76838;DHT22;65797;47.352;8.164;2024-03-02T20:59:34;5.90;1.00
76838;DHT22;65797;47.352;8.164;2024-03-02T21:02:01;5.90;43.60
76838;DHT22;65797;47.352;8.164;2024-03-02T21:04:27;5.90;1.00
76838;DHT22;65797;47.352;8.164;2024-03-02T21:06:53;5.70;21.90
76838;DHT22;65797;47.352;8.164;2024-03-02T21:09:19;5.60;99.90
76838;DHT22;65797;47.352;8.164;2024-03-02T21:11:45;5.60;99.90
76838;DHT22;65797;47.352;8.164;2024-03-02T21:14:12;5.70;1.00
76838;DHT22;65797;47.352;8.164;2024-03-02T21:16:37;5.70;99.90
76838;DHT22;65797;47.352;8.164;2024-03-02T21:19:06;5.70;99.90
76838;DHT22;65797;47.352;8.164;2024-03-02T21:21:32;5.70;99.90
76838;DHT22;65797;47.352;8.164;2024-03-02T21:23:57;5.70;1.00
76838;DHT22;65797;47.352;8.164;2024-03-02T21:26:23;5.60;1.00
76838;DHT22;65797;47.352;8.164;2024-03-02T21:28:49;5.60;1.00
76838;DHT22;65797;47.352;8.164;2024-03-02T21:31:18;5.60;1.00
76838;DHT22;65797;47.352;8.164;2024-03-02T21:33:43;5.50;1.00
76838;DHT22;65797;47.352;8.164;2024-03-02T21:36:09;5.50;99.90
76838;DHT22;65797;47.352;8.164;2024-03-02T21:43:44;5.40;99.90
76838;DHT22;65797;47.352;8.164;2024-03-02T21:46:13;5.30;28.70
76838;DHT22;65797;47.352;8.164;2024-03-02T21:48:39;5.30;99.90
76838;DHT22;65797;47.352;8.164;2024-03-02T21:51:04;5.20;76.00
76838;DHT22;65797;47.352;8.164;2024-03-02T21:53:30;5.20;74.90
76838;DHT22;65797;47.352;8.164;2024-03-02T21:55:56;5.20;64.40
76838;DHT22;65797;47.352;8.164;2024-03-02T21:58:21;5.20;99.90
76838;DHT22;65797;47.352;8.164;2024-03-02T22:00:47;5.10;1.00
76838;DHT22;65797;47.352;8.164;2024-03-02T22:03:13;5.10;1.00
76838;DHT22;65797;47.352;8.164;2024-03-02T22:05:39;5.10;1.00
76838;DHT22;65797;47.352;8.164;2024-03-02T22:08:06;5.00;1.00
76838;DHT22;65797;47.352;8.164;2024-03-02T22:10:32;4.90;1.00
76838;DHT22;65797;47.352;8.164;2024-03-02T22:12:58;4.90;1.00
76838;DHT22;65797;47.352;8.164;2024-03-02T22:15:25;4.90;1.00
76838;DHT22;65797;47.352;8.164;2024-03-02T22:17:51;4.80;1.00
76838;DHT22;65797;47.352;8.164;2024-03-02T22:20:17;4.70;1.00
76838;DHT22;65797;47.352;8.164;2024-03-02T22:22:43;4.60;1.00
76838;DHT22;65797;47.352;8.164;2024-03-02T22:25:09;4.60;1.00
76838;DHT22;65797;47.352;8.164;2024-03-02T22:27:35;4.60;1.00
76838;DHT22;65797;47.352;8.164;2024-03-02T22:30:05;4.60;1.00
76838;DHT22;65797;47.352;8.164;2024-03-02T22:32:31;4.50;1.00
76838;DHT22;65797;47.352;8.164;2024-03-02T22:34:57;4.50;1.00
76838;DHT22;65797;47.352;8.164;2024-03-02T22:37:23;4.50;1.00
76838;DHT22;65797;47.352;8.164;2024-03-02T22:39:48;4.50;33.60
76838;DHT22;65797;47.352;8.164;2024-03-02T22:42:14;4.50;1.00
76838;DHT22;65797;47.352;8.164;2024-03-02T22:44:40;4.50;1.00
76838;DHT22;65797;47.352;8.164;2024-03-02T22:47:06;4.40;1.00
76838;DHT22;65797;47.352;8.164;2024-03-02T22:49:32;4.30;1.00
76838;DHT22;65797;47.352;8.164;2024-03-02T22:51:57;4.30;89.10
76838;DHT22;65797;47.352;8.164;2024-03-02T22:54:23;4.30;99.90
76838;DHT22;65797;47.352;8.164;2024-03-02T22:56:49;4.30;99.90
76838;DHT22;65797;47.352;8.164;2024-03-02T23:49:10;4.00;99.90
76838;DHT22;65797;47.352;8.164;2024-03-02T23:51:35;4.00;1.00
76838;DHT22;65797;47.352;8.164;2024-03-02T23:54:01;3.90;1.00
